sensor_id;sensor_type;location;lat;lon;timestamp;pressure;altitude;pressure_sealevel;temperature;humidity
54329;BME280;40710;51.120;13.136;2023-05-12T00:00:38;99365.41;;;17.37;50.66
54329;BME280;40710;51.120;13.136;2023-05-12T00:03:03;99369.13;;;17.35;50.73
54329;BME280;40710;51.120;13.136;2023-05-12T00:05:27;99362.16;;;17.34;51.16
54329;BME280;40710;51.120;13.136;2023-05-12T00:07:53;99374.41;;;17.03;52.21
54329;BME280;40710;51.120;13.136;2023-05-12T00:10:17;99369.91;;;17.03;51.95
54329;BME280;40710;51.120;13.136;2023-05-12T00:12:42;99370.75;;;16.81;52.84
54329;BME280;40710;51.120;13.136;2023-05-12T00:15:08;99368.13;;;16.92;52.49
54329;BME280;40710;51.120;13.136;2023-05-12T00:17:32;99373.53;;;17.02;52.54
54329;BME280;40710;51.120;13.136;2023-05-12T00:19:57;99365.44;;;17.04;52.31
54329;BME280;40710;51.120;13.136;2023-05-12T00:22:21;99367.38;;;16.68;53.10
54329;BME280;40710;51.120;13.136;2023-05-12T00:24:46;99362.22;;;16.89;52.57
54329;BME280;40710;51.120;13.136;2023-05-12T00:27:10;99366.41;;;17.14;52.20
54329;BME280;40710;51.120;13.136;2023-05-12T00:29:35;99375.31;;;16.56;53.69
54329;BME280;40710;51.120;13.136;2023-05-12T00:32:00;99371.69;;;16.69;53.88
54329;BME280;40710;51.120;13.136;2023-05-12T00:34:26;99377.13;;;16.56;54.28
54329;BME280;40710;51.120;13.136;2023-05-12T00:36:50;99381.16;;;16.84;54.27
54329;BME280;40710;51.120;13.136;2023-05-12T00:39:15;99377.88;;;16.69;54.57
54329;BME280;40710;51.120;13.136;2023-05-12T00:41:39;99383.38;;;16.43;55.33
54329;BME280;40710;51.120;13.136;2023-05-12T00:44:04;99368.94;;;16.59;54.96
54329;BME280;40710;51.120;13.136;2023-05-12T00:46:28;99375.78;;;16.39;55.39
54329;BME280;40710;51.120;13.136;2023-05-12T00:48:53;99383.63;;;16.40;55.18
54329;BME280;40710;51.120;13.136;2023-05-12T00:51:18;99379.09;;;16.76;54.27
54329;BME280;40710;51.120;13.136;2023-05-12T00:53:42;99369.44;;;16.64;54.04
54329;BME280;40710;51.120;13.136;2023-05-12T00:56:08;99358.56;;;16.67;53.32
54329;BME280;40710;51.120;13.136;2023-05-12T00:58:33;99382.34;;;16.11;55.41
54329;BME280;40710;51.120;13.136;2023-05-12T01:00:58;99384.56;;;16.28;55.40
54329;BME280;40710;51.120;13.136;2023-05-12T01:03:22;99377.88;;;16.69;54.58
54329;BME280;40710;51.120;13.136;2023-05-12T01:08:30;99379.06;;;16.65;54.62
54329;BME280;40710;51.120;13.136;2023-05-12T01:10:55;99392.69;;;16.49;55.04
54329;BME280;40710;51.120;13.136;2023-05-12T01:13:19;99388.53;;;16.34;55.63
54329;BME280;40710;51.120;13.136;2023-05-12T01:15:46;99383.88;;;16.02;56.16
54329;BME280;40710;51.120;13.136;2023-05-12T01:18:13;99378.09;;;16.66;54.43
54329;BME280;40710;51.120;13.136;2023-05-12T01:20:41;99369.78;;;16.82;53.66
54329;BME280;40710;51.120;13.136;2023-05-12T01:23:06;99377.63;;;16.72;53.90
54329;BME280;40710;51.120;13.136;2023-05-12T01:25:33;99384.38;;;16.54;54.73
54329;BME280;40710;51.120;13.136;2023-05-12T01:27:58;99376.66;;;16.62;54.60
54329;BME280;40710;51.120;13.136;2023-05-12T01:30:25;99377.03;;;16.80;54.21
54329;BME280;40710;51.120;13.136;2023-05-12T01:32:51;99375.50;;;16.89;53.42
54329;BME280;40710;51.120;13.136;2023-05-12T01:35:15;99368.47;;;16.88;53.37
54329;BME280;40710;51.120;13.136;2023-05-12T01:37:40;99371.13;;;16.76;54.08
54329;BME280;40710;51.120;13.136;2023-05-12T01:40:05;99375.69;;;16.63;54.65
54329;BME280;40710;51.120;13.136;2023-05-12T01:42:29;99385.31;;;16.53;54.81
54329;BME280;40710;51.120;13.136;2023-05-12T01:44:54;99374.00;;;16.73;54.57
54329;BME280;40710;51.120;13.136;2023-05-12T01:47:18;99373.53;;;16.68;54.37
54329;BME280;40710;51.120;13.136;2023-05-12T01:49:44;99373.38;;;16.81;54.16
54329;BME280;40710;51.120;13.136;2023-05-12T01:52:09;99378.09;;;16.66;54.53
54329;BME280;40710;51.120;13.136;2023-05-12T01:54:33;99369.16;;;16.67;54.53
54329;BME280;40710;51.120;13.136;2023-05-12T01:56:58;99377.00;;;16.69;53.95
54329;BME280;40710;51.120;13.136;2023-05-12T01:59:23;99373.66;;;16.89;53.93
54329;BME280;40710;51.120;13.136;2023-05-12T02:01:47;99375.91;;;16.60;54.48
54329;BME280;40710;51.120;13.136;2023-05-12T02:04:12;99385.94;;;16.56;54.72
54329;BME280;40710;51.120;13.136;2023-05-12T02:06:36;99389.31;;;16.47;55.25
54329;BME280;40710;51.120;13.136;2023-05-12T02:09:01;99390.63;;;16.41;55.31
54329;BME280;40710;51.120;13.136;2023-05-12T02:11:26;99388.97;;;16.52;55.17
54329;BME280;40710;51.120;13.136;2023-05-12T02:13:50;99381.59;;;16.55;54.83
54329;BME280;40710;51.120;13.136;2023-05-12T02:16:15;99393.41;;;16.51;54.82
54329;BME280;40710;51.120;13.136;2023-05-12T02:18:40;99393.06;;;16.56;55.12
54329;BME280;40710;51.120;13.136;2023-05-12T02:21:04;99394.72;;;16.45;55.59
54329;BME280;40710;51.120;13.136;2023-05-12T02:23:29;99398.69;;;16.40;55.69
54329;BME280;40710;51.120;13.136;2023-05-12T02:25:54;99390.13;;;16.48;55.63
54329;BME280;40710;51.120;13.136;2023-05-12T02:28:18;99388.59;;;16.56;54.98
54329;BME280;40710;51.120;13.136;2023-05-12T02:30:48;99392.75;;;16.25;55.69
54329;BME280;40710;51.120;13.136;2023-05-12T02:33:16;99387.03;;;16.54;55.23
54329;BME280;40710;51.120;13.136;2023-05-12T02:35:40;99383.16;;;16.58;55.12
54329;BME280;40710;51.120;13.136;2023-05-12T02:38:05;99384.97;;;16.69;54.76
54329;BME280;40710;51.120;13.136;2023-05-12T02:40:29;99381.50;;;16.57;55.62
54329;BME280;40710;51.120;13.136;2023-05-12T02:42:54;99382.09;;;16.60;55.62
54329;BME280;40710;51.120;13.136;2023-05-12T02:45:18;99378.34;;;16.63;55.44
54329;BME280;40710;51.120;13.136;2023-05-12T02:47:43;99394.59;;;16.47;56.03
54329;BME280;40710;51.120;13.136;2023-05-12T02:50:08;99385.69;;;16.48;55.93
54329;BME280;40710;51.120;13.136;2023-05-12T02:52:32;99384.94;;;16.35;56.65
54329;BME280;40710;51.120;13.136;2023-05-12T02:54:57;99382.19;;;16.36;56.57
54329;BME280;40710;51.120;13.136;2023-05-12T02:57:22;99381.22;;;16.60;55.66
54329;BME280;40710;51.120;13.136;2023-05-12T02:59:46;99381.13;;;16.50;56.06
54329;BME280;40710;51.120;13.136;2023-05-12T03:02:11;99378.22;;;16.53;55.64
54329;BME280;40710;51.120;13.136;2023-05-12T03:04:35;99387.22;;;15.68;58.25
54329;BME280;40710;51.120;13.136;2023-05-12T03:07:00;99383.56;;;16.18;57.67
54329;BME280;40710;51.120;13.136;2023-05-12T03:09:24;99387.59;;;16.46;56.87
54329;BME280;40710;51.120;13.136;2023-05-12T03:11:49;99384.34;;;16.31;57.50
54329;BME280;40710;51.120;13.136;2023-05-12T03:14:13;99388.09;;;16.40;56.84
54329;BME280;40710;51.120;13.136;2023-05-12T03:16:38;99390.25;;;16.35;57.31
54329;BME280;40710;51.120;13.136;2023-05-12T03:19:02;99392.78;;;16.36;57.52
54329;BME280;40710;51.120;13.136;2023-05-12T03:21:28;99389.03;;;16.28;57.17
54329;BME280;40710;51.120;13.136;2023-05-12T03:23:52;99386.94;;;16.09;57.64
54329;BME280;40710;51.120;13.136;2023-05-12T03:26:17;99386.16;;;16.31;57.38
54329;BME280;40710;51.120;13.136;2023-05-12T03:28:41;99389.63;;;16.31;56.77
54329;BME280;40710;51.120;13.136;2023-05-12T03:31:06;99391.94;;;16.36;57.18
54329;BME280;40710;51.120;13.136;2023-05-12T03:33:30;99387.97;;;16.53;56.67
54329;BME280;40710;51.120;13.136;2023-05-12T03:35:55;99395.22;;;16.51;56.84
54329;BME280;40710;51.120;13.136;2023-05-12T03:38:20;99400.25;;;16.31;57.12
54329;BME280;40710;51.120;13.136;2023-05-12T03:40:44;99400.06;;;15.99;58.65
54329;BME280;40710;51.120;13.136;2023-05-12T03:43:09;99391.34;;;16.32;57.48
54329;BME280;40710;51.120;13.136;2023-05-12T03:45:34;99394.44;;;16.26;57.75
54329;BME280;40710;51.120;13.136;2023-05-12T03:47:59;99389.13;;;16.15;58.09
54329;BME280;40710;51.120;13.136;2023-05-12T03:50:23;99394.28;;;16.05;58.27
54329;BME280;40710;51.120;13.136;2023-05-12T03:52:48;99390.47;;;16.20;58.03
54329;BME280;40710;51.120;13.136;2023-05-12T03:55:12;99388.19;;;16.27;57.71
54329;BME280;40710;51.120;13.136;2023-05-12T03:57:37;99398.47;;;16.07;57.91
54329;BME280;40710;51.120;13.136;2023-05-12T04:00:03;99392.28;;;16.20;57.58
54329;BME280;40710;51.120;13.136;2023-05-12T04:02:28;99385.28;;;16.30;57.51
54329;BME280;40710;51.120;13.136;2023-05-12T04:04:53;99387.59;;;16.35;57.28
54329;BME280;40710;51.120;13.136;2023-05-12T04:07:17;99390.19;;;16.12;58.17
54329;BME280;40710;51.120;13.136;2023-05-12T04:09:42;99394.34;;;16.28;57.81
54329;BME280;40710;51.120;13.136;2023-05-12T04:12:07;99403.16;;;16.39;57.56
54329;BME280;40710;51.120;13.136;2023-05-12T04:14:31;99401.00;;;16.44;57.24
54329;BME280;40710;51.120;13.136;2023-05-12T04:16:56;99396.88;;;16.29;57.51
54329;BME280;40710;51.120;13.136;2023-05-12T04:19:21;99402.41;;;16.26;57.25
54329;BME280;40710;51.120;13.136;2023-05-12T04:21:46;99402.06;;;16.31;57.28
54329;BME280;40710;51.120;13.136;2023-05-12T04:24:10;99397.81;;;16.17;58.02
54329;BME280;40710;51.120;13.136;2023-05-12T04:26:35;99414.31;;;16.20;58.48
54329;BME280;40710;51.120;13.136;2023-05-12T04:28:59;99405.88;;;16.15;58.44
54329;BME280;40710;51.120;13.136;2023-05-12T04:31:24;99405.56;;;16.31;58.03
54329;BME280;40710;51.120;13.136;2023-05-12T04:33:48;99411.63;;;16.44;57.94
54329;BME280;40710;51.120;13.136;2023-05-12T04:36:13;99412.34;;;16.47;57.87
54329;BME280;40710;51.120;13.136;2023-05-12T04:38:38;99416.38;;;16.28;58.91
54329;BME280;40710;51.120;13.136;2023-05-12T04:41:02;99415.97;;;16.57;57.97
54329;BME280;40710;51.120;13.136;2023-05-12T04:43:27;99411.25;;;16.49;58.40
54329;BME280;40710;51.120;13.136;2023-05-12T04:45:52;99403.91;;;16.53;58.18
54329;BME280;40710;51.120;13.136;2023-05-12T04:48:18;99407.25;;;16.55;57.61
54329;BME280;40710;51.120;13.136;2023-05-12T04:50:43;99394.78;;;17.02;56.17
54329;BME280;40710;51.120;13.136;2023-05-12T04:53:07;99392.59;;;17.07;55.17
54329;BME280;40710;51.120;13.136;2023-05-12T04:55:32;99405.97;;;16.72;55.83
54329;BME280;40710;51.120;13.136;2023-05-12T04:57:56;99393.34;;;16.98;55.48
54329;BME280;40710;51.120;13.136;2023-05-12T05:00:21;99401.31;;;17.09;55.15
54329;BME280;40710;51.120;13.136;2023-05-12T05:02:45;99395.25;;;17.07;54.77
54329;BME280;40710;51.120;13.136;2023-05-12T05:05:10;99402.03;;;17.11;54.97
54329;BME280;40710;51.120;13.136;2023-05-12T05:07:35;99403.69;;;17.24;54.64
54329;BME280;40710;51.120;13.136;2023-05-12T05:09:59;99400.66;;;17.28;53.94
54329;BME280;40710;51.120;13.136;2023-05-12T05:12:24;99405.00;;;17.29;53.92
54329;BME280;40710;51.120;13.136;2023-05-12T05:14:49;99410.28;;;17.41;54.29
54329;BME280;40710;51.120;13.136;2023-05-12T05:17:13;99405.38;;;17.36;53.71
54329;BME280;40710;51.120;13.136;2023-05-12T05:19:38;99405.44;;;17.46;53.96
54329;BME280;40710;51.120;13.136;2023-05-12T05:22:02;99414.13;;;17.48;53.64
54329;BME280;40710;51.120;13.136;2023-05-12T05:24:28;99419.97;;;17.74;53.22
54329;BME280;40710;51.120;13.136;2023-05-12T05:26:52;99413.53;;;17.99;52.80
54329;BME280;40710;51.120;13.136;2023-05-12T05:29:17;99418.97;;;17.98;52.48
54329;BME280;40710;51.120;13.136;2023-05-12T05:31:41;99415.53;;;18.07;51.93
54329;BME280;40710;51.120;13.136;2023-05-12T05:34:06;99419.25;;;17.83;52.30
54329;BME280;40710;51.120;13.136;2023-05-12T05:36:30;99426.28;;;17.73;52.66
54329;BME280;40710;51.120;13.136;2023-05-12T05:38:55;99419.97;;;17.85;52.72
54329;BME280;40710;51.120;13.136;2023-05-12T05:41:20;99425.41;;;17.84;53.17
54329;BME280;40710;51.120;13.136;2023-05-12T05:43:46;99423.28;;;18.10;52.69
54329;BME280;40710;51.120;13.136;2023-05-12T05:46:10;99425.38;;;17.95;53.44
54329;BME280;40710;51.120;13.136;2023-05-12T05:48:35;99415.69;;;18.26;52.93
54329;BME280;40710;51.120;13.136;2023-05-12T05:50:59;99425.72;;;18.23;52.40
54329;BME280;40710;51.120;13.136;2023-05-12T05:53:24;99417.06;;;17.77;53.57
54329;BME280;40710;51.120;13.136;2023-05-12T05:55:49;99424.41;;;17.96;53.41
54329;BME280;40710;51.120;13.136;2023-05-12T05:58:14;99422.72;;;18.58;52.01
54329;BME280;40710;51.120;13.136;2023-05-12T06:00:38;99423.38;;;18.71;51.42
54329;BME280;40710;51.120;13.136;2023-05-12T06:03:03;99422.66;;;18.91;51.20
54329;BME280;40710;51.120;13.136;2023-05-12T06:05:27;99423.69;;;18.78;51.18
54329;BME280;40710;51.120;13.136;2023-05-12T06:07:52;99416.56;;;19.10;50.14
54329;BME280;40710;51.120;13.136;2023-05-12T06:10:16;99414.56;;;18.71;50.65
54329;BME280;40710;51.120;13.136;2023-05-12T06:12:41;99419.13;;;19.11;50.11
54329;BME280;40710;51.120;13.136;2023-05-12T06:15:06;99426.41;;;19.19;49.76
54329;BME280;40710;51.120;13.136;2023-05-12T06:17:31;99420.97;;;19.30;49.21
54329;BME280;40710;51.120;13.136;2023-05-12T06:19:56;99423.06;;;19.26;49.23
54329;BME280;40710;51.120;13.136;2023-05-12T06:22:20;99427.94;;;19.12;49.77
54329;BME280;40710;51.120;13.136;2023-05-12T06:24:45;99420.97;;;19.80;48.68
54329;BME280;40710;51.120;13.136;2023-05-12T06:27:09;99430.66;;;20.01;48.48
54329;BME280;40710;51.120;13.136;2023-05-12T06:29:34;99425.28;;;19.72;48.73
54329;BME280;40710;51.120;13.136;2023-05-12T06:31:58;99430.78;;;19.90;48.01
54329;BME280;40710;51.120;13.136;2023-05-12T06:34:23;99428.00;;;20.01;47.21
54329;BME280;40710;51.120;13.136;2023-05-12T06:36:48;99436.13;;;20.19;46.80
54329;BME280;40710;51.120;13.136;2023-05-12T06:39:13;99429.06;;;20.57;47.29
54329;BME280;40710;51.120;13.136;2023-05-12T06:41:37;99430.75;;;20.48;45.63
54329;BME280;40710;51.120;13.136;2023-05-12T06:44:02;99425.00;;;20.63;45.90
54329;BME280;40710;51.120;13.136;2023-05-12T06:46:26;99426.03;;;20.89;44.99
54329;BME280;40710;51.120;13.136;2023-05-12T06:48:51;99432.16;;;20.52;45.44
54329;BME280;40710;51.120;13.136;2023-05-12T06:51:16;99437.13;;;20.94;45.04
54329;BME280;40710;51.120;13.136;2023-05-12T06:53:40;99446.97;;;20.84;46.77
54329;BME280;40710;51.120;13.136;2023-05-12T06:56:05;99438.19;;;21.11;46.00
54329;BME280;40710;51.120;13.136;2023-05-12T06:58:30;99420.69;;;21.55;43.61
54329;BME280;40710;51.120;13.136;2023-05-12T07:00:55;99430.47;;;22.00;42.98
54329;BME280;40710;51.120;13.136;2023-05-12T07:03:19;99433.16;;;21.64;44.05
54329;BME280;40710;51.120;13.136;2023-05-12T07:05:44;99434.88;;;21.27;45.12
54329;BME280;40710;51.120;13.136;2023-05-12T07:08:09;99433.41;;;21.05;45.43
54329;BME280;40710;51.120;13.136;2023-05-12T07:10:34;99433.34;;;21.52;44.83
54329;BME280;40710;51.120;13.136;2023-05-12T07:12:58;99420.06;;;21.79;43.21
54329;BME280;40710;51.120;13.136;2023-05-12T07:15:23;99417.16;;;22.08;43.17
54329;BME280;40710;51.120;13.136;2023-05-12T07:17:47;99424.63;;;21.50;43.18
54329;BME280;40710;51.120;13.136;2023-05-12T07:20:12;99422.38;;;21.74;42.57
54329;BME280;40710;51.120;13.136;2023-05-12T07:22:37;99419.19;;;22.50;41.51
54329;BME280;40710;51.120;13.136;2023-05-12T07:25:01;99421.00;;;22.05;41.76
54329;BME280;40710;51.120;13.136;2023-05-12T07:27:26;99412.19;;;22.31;41.63
54329;BME280;40710;51.120;13.136;2023-05-12T07:29:50;99409.25;;;22.24;41.25
54329;BME280;40710;51.120;13.136;2023-05-12T07:32:15;99409.56;;;22.92;39.49
54329;BME280;40710;51.120;13.136;2023-05-12T07:34:39;99410.72;;;22.55;40.22
54329;BME280;40710;51.120;13.136;2023-05-12T07:37:04;99408.53;;;22.84;38.80
54329;BME280;40710;51.120;13.136;2023-05-12T07:39:29;99408.47;;;22.76;39.34
54329;BME280;40710;51.120;13.136;2023-05-12T07:41:55;99413.94;;;22.66;39.82
54329;BME280;40710;51.120;13.136;2023-05-12T07:44:20;99412.22;;;22.57;39.59
54329;BME280;40710;51.120;13.136;2023-05-12T07:46:44;99411.56;;;22.90;39.57
54329;BME280;40710;51.120;13.136;2023-05-12T07:49:09;99408.09;;;23.32;38.97
54329;BME280;40710;51.120;13.136;2023-05-12T07:51:33;99406.09;;;23.34;39.60
54329;BME280;40710;51.120;13.136;2023-05-12T07:53:58;99421.31;;;22.99;40.05
54329;BME280;40710;51.120;13.136;2023-05-12T07:56:24;99404.75;;;22.69;38.38
54329;BME280;40710;51.120;13.136;2023-05-12T07:58:48;99403.13;;;22.50;37.61
54329;BME280;40710;51.120;13.136;2023-05-12T08:01:13;99405.34;;;22.55;38.06
54329;BME280;40710;51.120;13.136;2023-05-12T08:03:37;99400.56;;;23.44;37.43
54329;BME280;40710;51.120;13.136;2023-05-12T08:06:02;99407.81;;;23.59;37.97
54329;BME280;40710;51.120;13.136;2023-05-12T08:08:29;99399.66;;;23.77;37.69
54329;BME280;40710;51.120;13.136;2023-05-12T08:10:53;99404.38;;;22.90;36.83
54329;BME280;40710;51.120;13.136;2023-05-12T08:13:17;99405.25;;;23.41;37.98
54329;BME280;40710;51.120;13.136;2023-05-12T08:15:42;99411.94;;;23.29;38.12
54329;BME280;40710;51.120;13.136;2023-05-12T08:18:07;99417.16;;;23.47;37.64
54329;BME280;40710;51.120;13.136;2023-05-12T08:20:31;99406.72;;;23.28;37.23
54329;BME280;40710;51.120;13.136;2023-05-12T08:22:56;99405.44;;;23.48;37.04
54329;BME280;40710;51.120;13.136;2023-05-12T08:25:21;99405.88;;;24.19;36.03
54329;BME280;40710;51.120;13.136;2023-05-12T08:27:45;99416.16;;;23.40;37.03
54329;BME280;40710;51.120;13.136;2023-05-12T08:30:10;99421.19;;;23.00;36.74
54329;BME280;40710;51.120;13.136;2023-05-12T08:32:35;99413.91;;;23.78;37.19
54329;BME280;40710;51.120;13.136;2023-05-12T08:35:00;99395.84;;;24.13;36.25
54329;BME280;40710;51.120;13.136;2023-05-12T08:37:25;99406.38;;;23.98;35.82
54329;BME280;40710;51.120;13.136;2023-05-12T08:39:51;99392.81;;;23.91;35.27
54329;BME280;40710;51.120;13.136;2023-05-12T08:42:36;99408.41;;;24.21;35.66
54329;BME280;40710;51.120;13.136;2023-05-12T08:45:01;99404.38;;;24.41;34.91
54329;BME280;40710;51.120;13.136;2023-05-12T08:47:27;99407.38;;;24.46;34.00
54329;BME280;40710;51.120;13.136;2023-05-12T08:49:58;99410.59;;;23.92;33.59
54329;BME280;40710;51.120;13.136;2023-05-12T08:52:24;99425.91;;;23.57;36.55
54329;BME280;40710;51.120;13.136;2023-05-12T08:54:49;99408.06;;;24.57;34.18
54329;BME280;40710;51.120;13.136;2023-05-12T08:57:15;99403.47;;;24.73;33.50
54329;BME280;40710;51.120;13.136;2023-05-12T08:59:43;99404.19;;;24.26;32.19
54329;BME280;40710;51.120;13.136;2023-05-12T09:02:08;99406.88;;;24.02;32.12
54329;BME280;40710;51.120;13.136;2023-05-12T09:04:33;99400.63;;;24.75;32.41
54329;BME280;40710;51.120;13.136;2023-05-12T09:06:59;99410.41;;;24.43;32.29
54329;BME280;40710;51.120;13.136;2023-05-12T09:09:26;99408.25;;;24.39;32.31
54329;BME280;40710;51.120;13.136;2023-05-12T09:11:55;99410.94;;;25.11;32.14
54329;BME280;40710;51.120;13.136;2023-05-12T09:14:24;99411.53;;;24.82;32.52
54329;BME280;40710;51.120;13.136;2023-05-12T09:16:54;99402.25;;;24.92;31.65
54329;BME280;40710;51.120;13.136;2023-05-12T09:19:22;99402.13;;;25.65;31.34
54329;BME280;40710;51.120;13.136;2023-05-12T09:21:47;99403.69;;;25.20;32.55
54329;BME280;40710;51.120;13.136;2023-05-12T09:24:11;99407.50;;;25.34;32.83
54329;BME280;40710;51.120;13.136;2023-05-12T09:26:53;99397.28;;;25.29;30.57
54329;BME280;40710;51.120;13.136;2023-05-12T09:29:19;99399.06;;;25.37;31.08
54329;BME280;40710;51.120;13.136;2023-05-12T09:31:51;99401.66;;;25.30;31.38
54329;BME280;40710;51.120;13.136;2023-05-12T09:34:17;99395.75;;;25.58;29.61
54329;BME280;40710;51.120;13.136;2023-05-12T09:36:42;99391.50;;;25.95;29.88
54329;BME280;40710;51.120;13.136;2023-05-12T09:39:08;99399.06;;;25.68;30.80
54329;BME280;40710;51.120;13.136;2023-05-12T09:41:40;99392.06;;;25.82;29.17
54329;BME280;40710;51.120;13.136;2023-05-12T09:44:06;99397.91;;;25.85;29.23
54329;BME280;40710;51.120;13.136;2023-05-12T09:46:31;99391.59;;;25.78;28.67
54329;BME280;40710;51.120;13.136;2023-05-12T09:48:57;99384.44;;;25.94;27.55
54329;BME280;40710;51.120;13.136;2023-05-12T09:51:23;99400.25;;;25.65;29.15
54329;BME280;40710;51.120;13.136;2023-05-12T09:53:49;99394.91;;;27.09;28.07
54329;BME280;40710;51.120;13.136;2023-05-12T09:56:15;99388.88;;;27.95;27.17
54329;BME280;40710;51.120;13.136;2023-05-12T09:58:46;99396.88;;;27.01;27.68
54329;BME280;40710;51.120;13.136;2023-05-12T10:01:15;99389.03;;;27.35;27.75
54329;BME280;40710;51.120;13.136;2023-05-12T10:03:41;99400.31;;;27.61;28.20
54329;BME280;40710;51.120;13.136;2023-05-12T10:06:14;99393.19;;;27.75;26.97
54329;BME280;40710;51.120;13.136;2023-05-12T10:08:51;99383.75;;;28.28;26.81
54329;BME280;40710;51.120;13.136;2023-05-12T10:11:18;99382.91;;;28.28;26.03
54329;BME280;40710;51.120;13.136;2023-05-12T10:13:45;99390.50;;;27.75;26.38
54329;BME280;40710;51.120;13.136;2023-05-12T10:16:10;99381.66;;;27.44;25.83
54329;BME280;40710;51.120;13.136;2023-05-12T10:18:35;99375.06;;;28.12;24.13
54329;BME280;40710;51.120;13.136;2023-05-12T10:21:01;99373.94;;;27.99;24.29
54329;BME280;40710;51.120;13.136;2023-05-12T10:23:27;99386.44;;;27.27;24.57
54329;BME280;40710;51.120;13.136;2023-05-12T10:25:53;99392.47;;;27.44;24.34
54329;BME280;40710;51.120;13.136;2023-05-12T10:28:21;99382.94;;;28.35;24.68
54329;BME280;40710;51.120;13.136;2023-05-12T10:30:46;99386.13;;;28.17;24.52
54329;BME280;40710;51.120;13.136;2023-05-12T10:33:11;99403.94;;;27.31;25.16
54329;BME280;40710;51.120;13.136;2023-05-12T10:35:38;99391.91;;;28.14;26.85
54329;BME280;40710;51.120;13.136;2023-05-12T10:38:07;99379.41;;;28.62;25.01
54329;BME280;40710;51.120;13.136;2023-05-12T10:40:33;99388.78;;;28.38;27.59
54329;BME280;40710;51.120;13.136;2023-05-12T10:42:58;99387.13;;;28.37;25.23
54329;BME280;40710;51.120;13.136;2023-05-12T10:45:26;99388.16;;;28.36;26.54
54329;BME280;40710;51.120;13.136;2023-05-12T10:47:51;99375.38;;;28.52;24.38
54329;BME280;40710;51.120;13.136;2023-05-12T10:50:25;99389.16;;;28.92;25.08
54329;BME280;40710;51.120;13.136;2023-05-12T10:52:56;99387.38;;;28.71;24.86
54329;BME280;40710;51.120;13.136;2023-05-12T10:55:32;99385.94;;;28.75;26.51
54329;BME280;40710;51.120;13.136;2023-05-12T10:58:24;99377.72;;;29.38;24.64
54329;BME280;40710;51.120;13.136;2023-05-12T11:00:49;99387.19;;;27.94;25.92
54329;BME280;40710;51.120;13.136;2023-05-12T11:03:16;99372.63;;;29.15;23.54
54329;BME280;40710;51.120;13.136;2023-05-12T11:05:41;99371.66;;;28.24;23.02
54329;BME280;40710;51.120;13.136;2023-05-12T11:08:06;99377.38;;;29.06;24.09
54329;BME280;40710;51.120;13.136;2023-05-12T11:10:31;99383.47;;;28.80;24.58
54329;BME280;40710;51.120;13.136;2023-05-12T11:12:56;99402.03;;;27.47;25.58
54329;BME280;40710;51.120;13.136;2023-05-12T11:15:21;99385.38;;;27.43;25.73
54329;BME280;40710;51.120;13.136;2023-05-12T11:17:45;99376.75;;;28.13;24.35
54329;BME280;40710;51.120;13.136;2023-05-12T11:20:21;99386.84;;;27.82;25.39
54329;BME280;40710;51.120;13.136;2023-05-12T11:22:46;99375.06;;;28.12;24.70
54329;BME280;40710;51.120;13.136;2023-05-12T11:25:11;99379.22;;;28.64;24.44
54329;BME280;40710;51.120;13.136;2023-05-12T11:27:35;99377.34;;;28.58;24.65
54329;BME280;40710;51.120;13.136;2023-05-12T11:30:06;99377.66;;;29.79;24.22
54329;BME280;40710;51.120;13.136;2023-05-12T11:32:30;99380.63;;;29.30;25.24
54329;BME280;40710;51.120;13.136;2023-05-12T11:34:55;99373.38;;;28.95;24.10
54329;BME280;40710;51.120;13.136;2023-05-12T11:37:35;99383.28;;;28.53;24.50
54329;BME280;40710;51.120;13.136;2023-05-12T11:40:00;99382.66;;;28.01;25.09
54329;BME280;40710;51.120;13.136;2023-05-12T11:42:24;99367.34;;;29.48;23.69
54329;BME280;40710;51.120;13.136;2023-05-12T11:44:49;99384.06;;;28.69;24.49
54329;BME280;40710;51.120;13.136;2023-05-12T11:47:15;99363.16;;;29.39;24.08
54329;BME280;40710;51.120;13.136;2023-05-12T11:49:48;99362.97;;;29.40;24.03
54329;BME280;40710;51.120;13.136;2023-05-12T11:52:12;99369.13;;;30.56;23.50
54329;BME280;40710;51.120;13.136;2023-05-12T11:54:37;99375.09;;;29.65;22.11
54329;BME280;40710;51.120;13.136;2023-05-12T11:57:02;99382.03;;;30.07;24.42
54329;BME280;40710;51.120;13.136;2023-05-12T11:59:31;99383.09;;;29.25;23.95
54329;BME280;40710;51.120;13.136;2023-05-12T12:01:57;99388.50;;;30.13;24.98
54329;BME280;40710;51.120;13.136;2023-05-12T12:04:42;99375.06;;;29.51;24.59
54329;BME280;40710;51.120;13.136;2023-05-12T12:07:07;99382.88;;;28.84;25.54
54329;BME280;40710;51.120;13.136;2023-05-12T12:09:35;99394.25;;;28.73;25.90
54329;BME280;40710;51.120;13.136;2023-05-12T12:12:01;99397.91;;;28.94;25.67
54329;BME280;40710;51.120;13.136;2023-05-12T12:14:26;99400.53;;;28.80;25.34
54329;BME280;40710;51.120;13.136;2023-05-12T12:16:51;99407.03;;;28.86;25.83
54329;BME280;40710;51.120;13.136;2023-05-12T12:19:16;99420.13;;;27.68;27.58
54329;BME280;40710;51.120;13.136;2023-05-12T12:21:40;99404.03;;;28.18;26.68
54329;BME280;40710;51.120;13.136;2023-05-12T12:24:05;99417.03;;;27.05;28.03
54329;BME280;40710;51.120;13.136;2023-05-12T12:26:30;99416.31;;;27.62;26.84
54329;BME280;40710;51.120;13.136;2023-05-12T12:28:54;99429.34;;;27.37;28.31
54329;BME280;40710;51.120;13.136;2023-05-12T12:31:19;99421.63;;;27.34;27.22
54329;BME280;40710;51.120;13.136;2023-05-12T12:33:44;99429.16;;;26.41;29.30
54329;BME280;40710;51.120;13.136;2023-05-12T12:36:08;99432.88;;;27.08;28.61
54329;BME280;40710;51.120;13.136;2023-05-12T12:38:33;99432.03;;;26.92;29.27
54329;BME280;40710;51.120;13.136;2023-05-12T12:40:58;99426.72;;;27.14;28.25
54329;BME280;40710;51.120;13.136;2023-05-12T12:43:23;99429.63;;;26.83;28.53